Time;durP1;ratioP1;P1;durP2;ratioP2;P2;SDS_P1;SDS_P2;PMS_P1;PMS_P2;Temp;Humidity;BMP_temperature;BMP_pressure;BME280_temperature;BME280_humidity;BME280_pressure;Samples;Min_cycle;Max_cycle;Signal;HPM_P1;HPM_P2
2023/11/06 00:01:51;;;;;;;4.43;2.38;;;7.60;99.90;;;;;;4993903;28;20113;-77
2023/11/06 00:04:16;;;;;;;6.13;2.92;;;7.50;99.90;;;;;;4988442;28;20042;-77
2023/11/06 00:06:43;;;;;;;5.10;2.10;;;7.50;99.90;;;;;;4990242;28;20041;-77
2023/11/06 00:09:08;;;;;;;5.40;2.60;;;7.50;99.90;;;;;;4989908;28;20040;-77
2023/11/06 00:11:34;;;;;;;3.97;1.90;;;7.30;99.90;;;;;;4989886;28;20459;-77
2023/11/06 00:14:00;;;;;;;3.97;2.00;;;7.30;99.90;;;;;;4993362;28;20035;-77
2023/11/06 00:16:26;;;;;;;4.95;2.38;;;7.40;99.90;;;;;;4991607;28;20459;-77
2023/11/06 00:18:52;;;;;;;3.78;1.92;;;7.40;99.90;;;;;;5002038;28;20072;-77
2023/11/06 00:21:21;;;;;;;4.22;1.90;;;7.40;99.90;;;;;;4973669;28;20812;-77
2023/11/06 00:23:47;;;;;;;4.45;2.15;;;7.30;99.90;;;;;;4992845;28;20552;-77
2023/11/06 00:26:13;;;;;;;4.93;2.42;;;7.40;99.90;;;;;;4995236;28;20030;-77
2023/11/06 00:28:40;;;;;;;4.53;2.40;;;7.40;99.90;;;;;;4995579;28;20030;-77
2023/11/06 00:31:06;;;;;;;4.43;1.85;;;7.30;99.90;;;;;;4996386;28;20042;-77
2023/11/06 00:33:31;;;;;;;2.22;1.48;;;7.30;99.90;;;;;;4990616;28;20027;-77
2023/11/06 00:35:57;;;;;;;3.30;1.80;;;7.30;99.90;;;;;;4994931;28;20034;-77
2023/11/06 00:38:23;;;;;;;3.47;2.05;;;7.10;99.90;;;;;;4991294;28;20437;-77
2023/11/06 00:40:50;;;;;;;3.97;2.05;;;7.10;99.90;;;;;;4990997;28;20073;-77
2023/11/06 00:43:16;;;;;;;3.58;1.90;;;7.20;99.90;;;;;;4998073;28;20052;-77
2023/11/06 00:45:41;;;;;;;4.15;2.20;;;7.30;99.90;;;;;;4992157;28;20048;-77
2023/11/06 00:48:07;;;;;;;3.20;1.73;;;7.20;99.90;;;;;;4990838;28;20484;-77
2023/11/06 00:50:33;;;;;;;3.63;1.55;;;7.20;99.90;;;;;;4995353;28;20452;-77
2023/11/06 00:52:59;;;;;;;4.20;1.90;;;7.00;99.90;;;;;;4992797;28;20062;-77
2023/11/06 00:55:28;;;;;;;3.90;1.80;;;7.00;99.90;;;;;;4990633;28;20033;-77
2023/11/06 00:57:53;;;;;;;4.65;1.55;;;6.90;99.90;;;;;;4990298;28;20062;-77
2023/11/06 01:00:22;;;;;;;5.30;1.92;;;6.70;99.90;;;;;;4989584;28;20519;-77
2023/11/06 01:02:48;;;;;;;3.95;1.90;;;6.70;99.90;;;;;;4987296;28;20041;-77
2023/11/06 01:05:15;;;;;;;4.95;1.58;;;6.70;99.90;;;;;;4985737;28;20030;-77
2023/11/06 01:07:40;;;;;;;3.70;1.70;;;6.60;99.90;;;;;;4989504;28;20030;-77
2023/11/06 01:10:07;;;;;;;4.72;1.80;;;6.60;99.90;;;;;;4985569;28;20034;-77
2023/11/06 01:12:33;;;;;;;4.03;2.17;;;6.50;99.90;;;;;;4985535;28;20089;-77
2023/11/06 01:14:59;;;;;;;3.78;1.88;;;6.50;99.90;;;;;;4986480;28;20026;-77
2023/11/06 01:17:25;;;;;;;3.33;1.95;;;6.50;99.90;;;;;;4988523;28;20121;-77
2023/11/06 01:19:51;;;;;;;4.20;2.00;;;6.60;99.90;;;;;;4985093;28;20037;-77
2023/11/06 01:22:17;;;;;;;4.55;2.38;;;6.60;99.90;;;;;;4988503;28;20026;-77
2023/11/06 01:24:43;;;;;;;5.28;2.15;;;6.70;99.90;;;;;;4987302;28;20168;-77
2023/11/06 01:27:09;;;;;;;4.28;2.17;;;6.70;99.90;;;;;;4985658;28;20128;-77
2023/11/06 01:29:35;;;;;;;3.05;1.67;;;6.70;99.90;;;;;;4986811;28;20117;-77
2023/11/06 01:32:03;;;;;;;4.63;1.80;;;6.70;99.90;;;;;;4987872;28;20618;-77
2023/11/06 01:34:29;;;;;;;3.40;1.52;;;6.70;99.90;;;;;;4985337;28;20038;-77
2023/11/06 01:36:55;;;;;;;5.03;1.95;;;6.60;99.90;;;;;;4987763;28;20066;-77
2023/11/06 01:39:22;;;;;;;3.30;1.70;;;6.40;99.90;;;;;;4991647;28;20077;-77
2023/11/06 01:41:48;;;;;;;5.10;2.05;;;6.40;99.90;;;;;;4984654;28;20543;-77
2023/11/06 01:44:14;;;;;;;4.50;1.52;;;6.40;99.90;;;;;;4986603;28;20034;-77
2023/11/06 01:46:40;;;;;;;6.55;2.40;;;6.50;99.90;;;;;;4986978;28;20298;-77
2023/11/06 01:49:07;;;;;;;4.18;1.73;;;6.50;99.90;;;;;;4986399;28;20045;-77
2023/11/06 01:51:35;;;;;;;3.40;1.70;;;6.50;99.90;;;;;;4987321;28;20096;-77
2023/11/06 01:54:02;;;;;;;3.95;2.42;;;6.40;99.90;;;;;;4986168;28;20034;-77
2023/11/06 01:56:30;;;;;;;4.47;1.80;;;6.40;99.90;;;;;;4988401;28;20038;-77
2023/11/06 01:58:58;;;;;;;4.43;2.08;;;6.30;99.90;;;;;;4985168;28;20030;-77
2023/11/06 02:01:26;;;;;;;3.22;1.42;;;6.40;99.90;;;;;;4984764;28;20034;-77
2023/11/06 02:03:53;;;;;;;5.00;1.73;;;6.20;99.90;;;;;;4984485;28;20480;-77
2023/11/06 02:06:19;;;;;;;3.67;1.98;;;6.10;99.90;;;;;;4988290;28;20105;-77
2023/11/06 02:08:45;;;;;;;4.45;2.50;;;6.20;99.90;;;;;;4986644;28;20058;-77
2023/11/06 02:11:11;;;;;;;4.90;2.78;;;6.30;99.90;;;;;;4987656;28;20064;-77
2023/11/06 02:13:36;;;;;;;3.78;2.00;;;6.30;99.90;;;;;;4987335;28;20081;-77
2023/11/06 02:16:03;;;;;;;5.43;1.75;;;6.30;99.90;;;;;;4986085;28;20038;-77
2023/11/06 02:18:29;;;;;;;3.83;1.65;;;6.30;99.90;;;;;;4987017;28;20034;-77
2023/11/06 02:20:56;;;;;;;3.03;1.77;;;6.50;99.90;;;;;;4984330;28;20476;-77
2023/11/06 02:23:25;;;;;;;5.03;1.85;;;6.30;99.90;;;;;;4992483;28;20030;-77
2023/11/06 02:25:51;;;;;;;3.25;1.80;;;6.40;99.90;;;;;;4986991;28;20092;-77
2023/11/06 02:28:17;;;;;;;4.20;1.50;;;6.50;99.90;;;;;;4985004;28;20022;-77
2023/11/06 02:30:43;;;;;;;2.72;1.88;;;6.50;99.90;;;;;;4984949;28;20030;-77
2023/11/06 02:33:09;;;;;;;4.95;1.95;;;6.50;99.90;;;;;;4983772;28;20026;-77
2023/11/06 02:35:36;;;;;;;2.97;1.95;;;6.40;99.90;;;;;;4990301;28;20084;-77
2023/11/06 02:38:03;;;;;;;3.22;1.50;;;6.40;99.90;;;;;;4995668;28;20025;-76
2023/11/06 02:40:29;;;;;;;3.67;1.73;;;6.50;99.90;;;;;;4989367;28;20069;-77
2023/11/06 02:42:54;;;;;;;4.75;2.00;;;6.60;99.90;;;;;;4991442;28;20073;-77
2023/11/06 02:45:20;;;;;;;4.28;1.75;;;6.80;99.90;;;;;;4991483;28;20473;-77
2023/11/06 02:47:46;;;;;;;3.38;1.85;;;6.80;99.90;;;;;;4997017;28;20112;-76
2023/11/06 02:50:12;;;;;;;4.45;1.90;;;6.80;99.90;;;;;;4991916;28;20129;-76
2023/11/06 02:52:39;;;;;;;3.63;1.42;;;6.60;99.90;;;;;;4990915;28;20034;-77
2023/11/06 02:55:05;;;;;;;3.03;1.70;;;6.40;99.90;;;;;;4991299;28;20540;-76
2023/11/06 02:57:32;;;;;;;4.68;2.05;;;6.20;99.90;;;;;;4990872;28;20109;-77
2023/11/06 02:59:58;;;;;;;3.80;1.70;;;6.30;99.90;;;;;;4988446;28;20070;-77
2023/11/06 03:02:23;;;;;;;2.88;1.52;;;6.20;99.90;;;;;;4995096;28;20058;-77
2023/11/06 03:04:49;;;;;;;2.30;1.33;;;6.20;99.90;;;;;;4989915;28;20037;-77
2023/11/06 03:07:15;;;;;;;4.53;1.70;;;6.10;99.90;;;;;;4993591;28;20109;-77
2023/11/06 03:09:41;;;;;;;4.57;2.25;;;6.20;99.90;;;;;;4994813;28;20038;-77
2023/11/06 03:12:07;;;;;;;3.15;1.60;;;6.10;99.90;;;;;;4995075;28;20026;-77
2023/11/06 03:14:35;;;;;;;3.47;1.30;;;6.00;99.90;;;;;;4990455;28;20045;-77
2023/11/06 03:17:01;;;;;;;3.03;1.58;;;5.90;99.90;;;;;;4992590;28;20065;-76
2023/11/06 03:19:26;;;;;;;4.75;1.60;;;5.80;99.90;;;;;;4988030;28;20069;-77
2023/11/06 03:21:52;;;;;;;3.53;1.70;;;5.70;99.90;;;;;;4989188;28;20067;-77
2023/11/06 03:24:18;;;;;;;3.13;1.58;;;5.80;99.90;;;;;;4988983;28;20386;-77
2023/11/06 03:26:43;;;;;;;4.25;1.98;;;6.00;99.90;;;;;;4988308;28;20101;-77
2023/11/06 03:29:09;;;;;;;3.22;1.88;;;6.10;99.90;;;;;;4987650;28;20022;-77
2023/11/06 03:31:35;;;;;;;5.15;2.45;;;5.90;99.90;;;;;;4990892;28;20476;-77
2023/11/06 03:34:01;;;;;;;4.57;1.70;;;5.90;99.90;;;;;;4990282;28;20471;-77
2023/11/06 03:36:27;;;;;;;2.95;1.35;;;5.80;99.90;;;;;;4989490;28;20085;-77
2023/11/06 03:38:53;;;;;;;2.50;1.40;;;5.60;99.90;;;;;;4988723;28;20026;-76
2023/11/06 03:41:19;;;;;;;3.80;1.70;;;5.70;99.90;;;;;;4987700;28;20058;-77
2023/11/06 03:43:48;;;;;;;3.30;1.70;;;5.80;99.90;;;;;;4988279;28;20026;-77
2023/11/06 03:46:14;;;;;;;5.13;1.40;;;5.90;99.90;;;;;;4994268;28;20026;-77
2023/11/06 03:48:40;;;;;;;3.83;1.60;;;5.90;99.90;;;;;;4987867;28;20361;-76
2023/11/06 03:51:05;;;;;;;2.22;1.02;;;5.80;99.90;;;;;;4991929;28;20408;-77
2023/11/06 03:53:31;;;;;;;7.07;1.90;;;5.70;99.90;;;;;;4992501;28;20033;-76
2023/11/06 03:55:57;;;;;;;2.80;1.60;;;5.60;99.90;;;;;;4987396;28;20105;-77
2023/11/06 03:58:22;;;;;;;4.35;1.20;;;5.50;99.90;;;;;;4989632;28;20039;-77
2023/11/06 04:00:48;;;;;;;2.78;1.20;;;5.70;99.90;;;;;;4987834;28;20516;-76
2023/11/06 04:03:14;;;;;;;5.15;1.30;;;5.70;99.90;;;;;;4990412;28;20104;-77
2023/11/06 04:05:39;;;;;;;4.82;1.20;;;5.50;99.90;;;;;;4986632;28;20084;-77
2023/11/06 04:08:05;;;;;;;3.30;1.35;;;5.50;99.90;;;;;;4984558;28;20034;-77
2023/11/06 04:10:30;;;;;;;3.92;1.73;;;5.50;99.90;;;;;;4984262;28;20124;-77
2023/11/06 04:12:57;;;;;;;4.13;1.80;;;5.60;99.90;;;;;;4986360;28;20037;-77
2023/11/06 04:15:23;;;;;;;7.78;1.40;;;5.60;99.90;;;;;;4982814;28;20576;-77
2023/11/06 04:17:49;;;;;;;4.57;1.50;;;5.80;99.90;;;;;;4988501;28;20030;-77
2023/11/06 04:20:14;;;;;;;2.85;1.13;;;5.60;99.90;;;;;;4980373;28;20068;-77
2023/11/06 04:22:40;;;;;;;3.95;1.60;;;5.50;99.90;;;;;;4980290;28;20109;-77
2023/11/06 04:25:06;;;;;;;3.10;1.52;;;5.60;99.90;;;;;;4984114;28;20389;-77
2023/11/06 04:27:32;;;;;;;5.28;1.60;;;5.70;99.90;;;;;;4987461;28;20031;-78
2023/11/06 04:29:58;;;;;;;4.00;1.58;;;5.90;99.90;;;;;;4981576;28;20132;-77
2023/11/06 04:32:23;;;;;;;4.40;1.60;;;6.00;99.90;;;;;;4980082;28;23459;-77
2023/11/06 04:34:49;;;;;;;2.78;1.33;;;5.90;99.90;;;;;;4984002;28;20038;-77
2023/11/06 04:37:15;;;;;;;2.53;1.33;;;5.60;99.90;;;;;;4988775;28;20030;-77
2023/11/06 04:39:40;;;;;;;3.75;1.17;;;5.40;99.90;;;;;;4987923;28;21140;-77
2023/11/06 04:42:09;;;;;;;2.67;1.17;;;5.40;99.90;;;;;;4987011;28;20030;-77
2023/11/06 04:44:34;;;;;;;2.92;1.50;;;5.40;99.90;;;;;;4988968;28;20030;-77
2023/11/06 04:47:00;;;;;;;7.93;1.58;;;5.40;99.90;;;;;;4991169;28;21464;-77
2023/11/06 04:49:26;;;;;;;4.90;1.52;;;5.40;99.90;;;;;;4993523;28;20046;-77
2023/11/06 04:51:51;;;;;;;4.38;1.80;;;5.30;99.90;;;;;;4987447;28;20169;-77
2023/11/06 04:54:17;;;;;;;2.22;1.20;;;5.30;99.90;;;;;;4986905;28;20461;-77
2023/11/06 04:56:43;;;;;;;3.10;1.42;;;5.30;99.90;;;;;;4987575;28;20397;-77
2023/11/06 04:59:09;;;;;;;3.65;1.95;;;5.40;99.90;;;;;;4987312;28;20034;-78
2023/11/06 05:01:37;;;;;;;4.43;1.80;;;5.60;99.90;;;;;;4983780;28;20026;-77
2023/11/06 05:04:03;;;;;;;3.33;1.70;;;5.80;99.90;;;;;;4983576;28;20472;-77
2023/11/06 05:06:29;;;;;;;4.07;2.03;;;5.80;99.90;;;;;;4986350;28;20034;-77
2023/11/06 05:08:54;;;;;;;3.60;1.88;;;5.80;99.90;;;;;;4983334;28;24121;-78
2023/11/06 05:11:20;;;;;;;3.90;1.77;;;5.80;99.90;;;;;;4984639;28;20034;-77
2023/11/06 05:13:47;;;;;;;11.15;1.90;;;5.70;99.90;;;;;;4990332;28;20408;-77
2023/11/06 05:16:13;;;;;;;4.10;1.83;;;5.80;99.90;;;;;;4988096;28;20030;-77
2023/11/06 05:18:39;;;;;;;3.53;1.83;;;5.80;99.90;;;;;;4982934;28;20026;-77
2023/11/06 05:21:05;;;;;;;4.20;1.48;;;5.80;99.90;;;;;;4985997;28;20062;-77
2023/11/06 05:23:31;;;;;;;3.67;1.33;;;5.80;99.90;;;;;;4984228;28;20018;-77
2023/11/06 05:25:57;;;;;;;3.05;1.58;;;5.90;99.90;;;;;;4984404;28;20041;-77
2023/11/06 05:28:22;;;;;;;2.47;1.35;;;6.10;99.90;;;;;;4982892;28;20026;-77
2023/11/06 05:30:48;;;;;;;4.00;1.80;;;6.10;99.90;;;;;;4989869;28;20495;-77
2023/11/06 05:33:13;;;;;;;4.22;1.70;;;6.20;99.90;;;;;;4983455;28;20821;-77
2023/11/06 05:35:39;;;;;;;2.97;1.73;;;6.20;99.90;;;;;;4988921;28;20464;-77
2023/11/06 05:38:05;;;;;;;3.53;1.75;;;6.10;99.90;;;;;;4986294;28;20616;-77
2023/11/06 05:40:31;;;;;;;2.55;1.38;;;6.10;99.90;;;;;;4982378;28;20046;-77
2023/11/06 05:42:56;;;;;;;3.33;1.40;;;5.90;99.90;;;;;;4983818;28;20027;-77
2023/11/06 05:45:22;;;;;;;3.40;1.38;;;5.60;99.90;;;;;;4983733;28;20120;-77
2023/11/06 05:47:48;;;;;;;2.17;1.25;;;5.50;99.90;;;;;;4987913;28;20038;-77
2023/11/06 05:50:13;;;;;;;3.72;1.10;;;5.40;99.90;;;;;;4981682;28;20163;-77
2023/11/06 05:52:39;;;;;;;2.92;1.20;;;5.30;99.90;;;;;;4982128;28;20107;-78
2023/11/06 05:55:06;;;;;;;2.63;1.33;;;5.30;99.90;;;;;;4983530;28;20062;-77
2023/11/06 05:57:31;;;;;;;3.50;1.33;;;5.30;99.90;;;;;;4984938;28;20384;-77
2023/11/06 05:59:57;;;;;;;3.47;1.90;;;5.20;99.90;;;;;;4982224;28;20092;-77
2023/11/06 06:02:23;;;;;;;4.47;1.73;;;5.30;99.90;;;;;;4983836;28;20026;-77
2023/11/06 06:04:48;;;;;;;3.50;1.75;;;5.30;99.90;;;;;;4985498;28;20029;-77
2023/11/06 06:07:14;;;;;;;3.40;1.77;;;5.30;99.90;;;;;;4993990;28;20037;-76
2023/11/06 06:09:41;;;;;;;3.58;1.92;;;5.50;99.90;;;;;;4992744;28;20099;-77
2023/11/06 06:12:08;;;;;;;4.15;2.30;;;5.60;99.90;;;;;;4984273;28;20065;-77
2023/11/06 06:14:33;;;;;;;4.30;2.42;;;5.50;99.90;;;;;;4988880;28;20030;-77
2023/11/06 06:16:59;;;;;;;4.80;2.17;;;5.40;99.90;;;;;;4989497;28;20036;-77
2023/11/06 06:19:25;;;;;;;3.97;2.17;;;5.40;99.90;;;;;;4984164;28;20456;-77
2023/11/06 06:21:50;;;;;;;3.75;2.20;;;5.30;99.90;;;;;;4981714;28;20650;-76
2023/11/06 06:24:17;;;;;;;3.83;1.85;;;5.30;99.90;;;;;;4990145;28;20041;-77
2023/11/06 06:26:43;;;;;;;4.15;2.30;;;5.30;99.90;;;;;;4984167;28;20091;-77
2023/11/06 06:29:08;;;;;;;4.38;1.75;;;5.30;99.90;;;;;;4983103;28;20030;-75
2023/11/06 06:31:34;;;;;;;4.20;2.05;;;5.30;99.90;;;;;;4983037;28;20038;-77
2023/11/06 06:34:00;;;;;;;2.67;1.35;;;5.30;99.90;;;;;;4981941;28;20038;-77
2023/11/06 06:36:26;;;;;;;3.00;1.45;;;5.30;99.90;;;;;;4985000;28;20084;-79
2023/11/06 06:38:52;;;;;;;2.60;1.30;;;5.10;99.90;;;;;;4988851;28;20029;-77
2023/11/06 06:41:17;;;;;;;3.42;1.50;;;5.30;99.90;;;;;;4981605;28;20038;-77
2023/11/06 06:43:43;;;;;;;4.10;1.48;;;5.50;99.90;;;;;;4983796;28;20573;-76
2023/11/06 06:46:09;;;;;;;2.83;1.52;;;5.50;99.90;;;;;;4986556;28;20420;-76
2023/11/06 06:48:35;;;;;;;3.08;1.45;;;5.70;99.90;;;;;;4982387;28;20030;-76
2023/11/06 06:51:01;;;;;;;4.07;1.88;;;5.70;99.90;;;;;;4985098;28;20555;-78
2023/11/06 06:53:26;;;;;;;2.92;1.40;;;5.80;99.90;;;;;;4989059;28;20545;-77
2023/11/06 06:55:52;;;;;;;3.00;1.58;;;5.90;99.90;;;;;;4992932;28;20029;-77
2023/11/06 06:58:18;;;;;;;8.23;2.80;;;5.90;99.90;;;;;;4985532;28;20034;-75
2023/11/06 07:00:44;;;;;;;5.53;2.05;;;5.80;99.90;;;;;;4986621;28;20516;-76
2023/11/06 07:03:10;;;;;;;5.47;2.58;;;5.90;99.90;;;;;;4985614;28;20030;-75
2023/11/06 07:05:37;;;;;;;3.85;2.10;;;6.10;99.90;;;;;;4985413;28;20056;-76
2023/11/06 07:08:03;;;;;;;6.43;3.00;;;6.10;99.90;;;;;;4985030;28;20030;-76
2023/11/06 07:10:30;;;;;;;5.88;3.20;;;6.10;99.90;;;;;;4983671;28;20029;-76
2023/11/06 07:12:57;;;;;;;6.53;2.72;;;6.30;99.90;;;;;;4983435;28;20076;-76
2023/11/06 07:15:25;;;;;;;5.82;2.15;;;6.10;99.90;;;;;;4990828;28;20117;-76
2023/11/06 07:17:52;;;;;;;4.70;2.25;;;5.70;99.90;;;;;;4982669;28;20515;-76
2023/11/06 07:20:18;;;;;;;4.90;2.72;;;5.50;99.90;;;;;;4991309;28;20042;-76
2023/11/06 07:22:45;;;;;;;5.30;2.80;;;5.50;99.90;;;;;;4996655;28;20084;-76
2023/11/06 07:25:11;;;;;;;5.82;2.90;;;5.50;99.90;;;;;;4991448;28;20034;-76
2023/11/06 07:27:37;;;;;;;4.65;2.58;;;5.50;99.90;;;;;;4989794;28;20041;-76
2023/11/06 07:30:07;;;;;;;5.75;2.67;;;5.40;99.90;;;;;;4996979;28;20041;-76
2023/11/06 07:32:33;;;;;;;4.95;2.47;;;5.30;99.90;;;;;;4995748;28;20037;-76
2023/11/06 07:34:58;;;;;;;4.55;2.40;;;5.20;99.90;;;;;;5002150;28;20132;-76
2023/11/06 07:37:24;;;;;;;3.60;1.92;;;5.30;99.90;;;;;;5004183;28;20029;-76
2023/11/06 07:39:50;;;;;;;4.40;1.58;;;5.20;99.90;;;;;;5001167;28;20026;-76
2023/11/06 07:42:15;;;;;;;4.22;2.33;;;5.20;99.90;;;;;;5004056;28;20026;-76
2023/11/06 07:44:42;;;;;;;5.28;2.00;;;5.40;99.90;;;;;;5000583;28;20038;-76
2023/11/06 07:47:08;;;;;;;2.88;1.60;;;5.40;99.90;;;;;;5002895;28;20030;-76
2023/11/06 07:49:34;;;;;;;2.88;1.70;;;5.50;99.90;;;;;;5003698;28;20054;-76
2023/11/06 07:52:06;;;;;;;2.88;1.40;;;5.50;99.90;;;;;;5001267;28;20061;-75
2023/11/06 07:54:32;;;;;;;3.90;1.90;;;5.70;99.90;;;;;;4993598;28;20085;-76
2023/11/06 07:56:58;;;;;;;2.67;1.30;;;5.80;99.90;;;;;;4985031;28;20037;-76
2023/11/06 07:59:23;;;;;;;6.80;1.60;;;5.80;99.90;;;;;;4983555;28;20030;-76
2023/11/06 08:01:49;;;;;;;3.30;1.77;;;5.90;99.90;;;;;;4984591;28;20034;-75
2023/11/06 08:04:16;;;;;;;4.15;1.55;;;6.10;99.90;;;;;;4985393;28;20379;-77
2023/11/06 08:06:42;;;;;;;3.17;1.98;;;5.90;99.90;;;;;;4982175;28;20616;-76
2023/11/06 08:09:09;;;;;;;5.05;2.38;;;5.80;99.90;;;;;;4982206;28;20496;-76
2023/11/06 08:11:35;;;;;;;5.43;2.00;;;5.90;99.90;;;;;;4984422;28;20053;-74
2023/11/06 08:14:02;;;;;;;2.70;1.40;;;5.80;99.90;;;;;;4982684;28;20034;-71
2023/11/06 08:16:35;;;;;;;3.10;1.50;;;5.80;99.90;;;;;;4989223;28;20061;-72
2023/11/06 08:21:42;;;;;;;2.53;1.30;;;6.00;99.90;;;;;;5491382;23;20620;-78
2023/11/06 08:24:15;;;;;;;3.20;1.52;;;6.10;99.90;;;;;;5021981;28;20032;-78
2023/11/06 08:27:03;;;;;;;3.83;1.27;;;6.10;99.90;;;;;;5029246;28;20055;-79
2023/11/06 08:29:33;;;;;;;3.22;1.33;;;6.10;99.90;;;;;;4994599;28;20042;-79
2023/11/06 08:32:01;;;;;;;3.25;1.70;;;6.00;99.90;;;;;;5013882;28;20489;-81
2023/11/06 08:34:26;;;;;;;4.43;1.80;;;6.00;99.90;;;;;;5030749;28;20037;-81
2023/11/06 08:36:52;;;;;;;3.30;1.50;;;6.10;99.90;;;;;;5032105;28;20098;-79
2023/11/06 08:39:18;;;;;;;3.28;1.40;;;6.00;99.90;;;;;;5031488;28;20442;-81
2023/11/06 08:41:46;;;;;;;3.33;1.40;;;6.00;99.90;;;;;;5030658;28;20029;-80
2023/11/06 08:44:12;;;;;;;4.57;1.30;;;6.00;99.90;;;;;;5028744;28;20037;-81
2023/11/06 08:46:39;;;;;;;3.83;1.20;;;6.00;99.90;;;;;;5015610;28;20029;-78
2023/11/06 08:51:41;;;;;;;2.30;1.10;;;5.90;99.90;;;;;;5972459;22;20107;-73
2023/11/06 08:54:06;;;;;;;2.10;1.17;;;6.00;99.90;;;;;;5011672;28;20037;-74
2023/11/06 08:56:32;;;;;;;3.80;1.63;;;6.00;99.90;;;;;;5029895;28;20461;-75
2023/11/06 08:58:58;;;;;;;2.92;1.45;;;6.10;99.90;;;;;;5025330;28;20038;-74
2023/11/06 09:01:24;;;;;;;4.22;1.70;;;6.20;99.90;;;;;;4991387;28;20052;-74
2023/11/06 09:03:53;;;;;;;5.05;1.42;;;6.30;99.90;;;;;;5022797;28;20812;-74
2023/11/06 09:06:20;;;;;;;4.15;1.40;;;6.30;99.90;;;;;;5019886;28;20034;-75
2023/11/06 09:08:46;;;;;;;5.82;2.05;;;6.50;99.90;;;;;;5028378;28;20037;-75
2023/11/06 09:11:12;;;;;;;3.25;1.50;;;6.60;99.90;;;;;;5028138;28;20027;-74
2023/11/06 09:13:37;;;;;;;3.30;1.63;;;6.70;99.90;;;;;;5028508;28;20029;-74
2023/11/06 09:16:03;;;;;;;3.80;1.65;;;6.80;99.90;;;;;;5021189;28;20037;-73
2023/11/06 09:18:29;;;;;;;3.35;1.52;;;6.90;99.90;;;;;;5010725;28;20760;-74
2023/11/06 09:20:55;;;;;;;4.05;1.70;;;7.00;99.90;;;;;;5023262;28;20041;-75
2023/11/06 09:23:21;;;;;;;4.10;1.70;;;7.00;99.90;;;;;;5016651;28;20105;-73
2023/11/06 09:25:48;;;;;;;5.28;1.90;;;7.10;99.90;;;;;;5005040;28;20045;-72
2023/11/06 09:28:13;;;;;;;3.47;1.52;;;7.20;99.90;;;;;;4986069;28;20063;-73
2023/11/06 09:30:44;;;;;;;5.43;1.50;;;7.30;99.90;;;;;;5005263;28;21161;-73
2023/11/06 09:33:10;;;;;;;5.07;1.90;;;7.40;99.90;;;;;;5006263;28;20038;-74
2023/11/06 09:35:35;;;;;;;3.55;1.42;;;7.40;99.90;;;;;;5005257;28;20032;-73
2023/11/06 09:38:02;;;;;;;3.00;1.50;;;7.40;99.90;;;;;;5007049;28;20126;-74
2023/11/06 09:40:29;;;;;;;2.85;1.70;;;7.50;99.90;;;;;;5008416;28;20030;-74
2023/11/06 09:42:55;;;;;;;5.72;2.13;;;7.50;99.90;;;;;;5002780;28;20030;-73
2023/11/06 09:45:21;;;;;;;3.67;1.95;;;7.60;99.90;;;;;;5004216;28;20109;-76
2023/11/06 09:47:54;;;;;;;4.72;1.90;;;7.60;99.90;;;;;;5002157;28;20034;-77
2023/11/06 09:50:22;;;;;;;7.10;2.50;;;7.80;99.90;;;;;;5004248;28;20037;-75
2023/11/06 09:52:53;;;;;;;4.82;1.83;;;7.80;99.90;;;;;;5001973;28;20164;-75
2023/11/06 09:55:19;;;;;;;4.28;2.00;;;7.80;99.90;;;;;;5005822;28;20083;-75
2023/11/06 09:57:51;;;;;;;3.20;1.63;;;7.80;99.90;;;;;;5001443;28;20122;-76
2023/11/06 10:00:18;;;;;;;3.05;1.60;;;7.80;99.90;;;;;;5001717;28;20069;-76
2023/11/06 10:02:51;;;;;;;7.85;6.05;;;7.90;99.90;;;;;;5005978;28;20030;-76
2023/11/06 10:05:20;;;;;;;6.53;3.80;;;8.10;99.90;;;;;;5002365;28;20049;-74
2023/11/06 10:07:56;;;;;;;6.18;2.22;;;8.00;99.90;;;;;;5010319;28;20087;-72
2023/11/06 10:10:23;;;;;;;3.55;1.80;;;8.10;99.90;;;;;;5011544;28;21012;-72
2023/11/06 10:13:03;;;;;;;6.07;2.60;;;8.50;99.90;;;;;;5001329;28;20073;-72
2023/11/06 10:15:30;;;;;;;3.92;2.03;;;8.70;99.90;;;;;;5003056;28;20169;-73
2023/11/06 10:18:12;;;;;;;7.60;2.40;;;8.50;99.90;;;;;;5005096;28;20034;-73
2023/11/06 10:20:43;;;;;;;3.90;2.08;;;8.50;99.90;;;;;;5002687;28;20033;-73
2023/11/06 10:23:08;;;;;;;4.53;1.77;;;8.50;99.90;;;;;;5003631;28;20030;-73
2023/11/06 10:25:34;;;;;;;2.58;1.55;;;8.50;99.90;;;;;;5004989;28;20068;-72
2023/11/06 10:28:00;;;;;;;4.13;1.63;;;8.60;99.90;;;;;;5003362;28;20030;-73
2023/11/06 10:30:29;;;;;;;2.33;1.45;;;8.70;99.90;;;;;;5000183;28;20125;-73
2023/11/06 10:32:57;;;;;;;3.88;1.77;;;8.70;99.90;;;;;;5001013;28;20030;-73
2023/11/06 10:35:24;;;;;;;3.30;1.90;;;8.80;99.90;;;;;;5004193;28;20497;-73
2023/11/06 10:37:50;;;;;;;4.45;2.00;;;9.00;99.90;;;;;;5008898;28;20040;-73
2023/11/06 10:40:20;;;;;;;6.90;3.17;;;9.00;99.90;;;;;;5007497;28;20038;-73
2023/11/06 10:42:48;;;;;;;37.20;21.63;;;9.00;99.90;;;;;;5002117;28;20026;-72
2023/11/06 10:45:14;;;;;;;33.33;16.05;;;9.10;99.90;;;;;;5002673;28;20476;-72
2023/11/06 10:47:46;;;;;;;13.27;6.63;;;9.10;99.90;;;;;;5004565;28;20029;-72
2023/11/06 10:50:18;;;;;;;9.52;4.10;;;9.00;99.90;;;;;;5001561;28;20041;-73
2023/11/06 10:52:50;;;;;;;7.15;3.65;;;9.20;99.90;;;;;;5000236;28;20054;-73
2023/11/06 10:55:16;;;;;;;5.10;2.70;;;9.30;99.90;;;;;;5001467;28;20030;-73
2023/11/06 10:57:44;;;;;;;5.22;3.38;;;9.50;99.90;;;;;;5018511;28;20029;-73
2023/11/06 11:00:18;;;;;;;5.07;3.25;;;9.60;99.90;;;;;;5000959;28;20103;-73
2023/11/06 11:02:51;;;;;;;5.28;1.80;;;9.70;99.90;;;;;;5007404;28;20029;-73
2023/11/06 11:05:18;;;;;;;4.78;2.42;;;9.80;99.90;;;;;;5007911;28;20040;-73
2023/11/06 11:07:48;;;;;;;4.85;1.73;;;9.90;99.90;;;;;;5007974;28;20076;-72
2023/11/06 11:10:18;;;;;;;4.50;2.13;;;9.90;99.90;;;;;;5008219;28;20026;-72
2023/11/06 11:12:55;;;;;;;2.88;1.58;;;9.90;99.90;;;;;;5018132;28;20111;-72
2023/11/06 11:15:25;;;;;;;3.35;1.73;;;10.20;99.90;;;;;;5015599;28;20049;-72
2023/11/06 11:18:04;;;;;;;5.82;3.03;;;10.30;99.90;;;;;;5012863;28;20120;-73
2023/11/06 11:20:49;;;;;;;3.83;2.00;;;10.40;99.90;;;;;;5015283;28;20108;-72
2023/11/06 11:23:15;;;;;;;3.60;1.70;;;10.60;99.90;;;;;;5017025;28;20026;-72
2023/11/06 11:26:01;;;;;;;3.40;1.73;;;10.60;99.90;;;;;;5012885;28;20032;-72
2023/11/06 11:28:27;;;;;;;2.95;1.48;;;10.70;99.90;;;;;;5014221;28;20026;-72
2023/11/06 11:30:53;;;;;;;5.45;2.00;;;10.70;99.90;;;;;;5017578;28;20597;-71
2023/11/06 11:33:57;;;;;;;5.82;2.90;;;10.50;99.90;;;;;;5017231;28;20033;-75
2023/11/06 11:36:29;;;;;;;4.85;1.95;;;10.60;99.90;;;;;;5012086;28;20057;-71
2023/11/06 11:38:56;;;;;;;3.90;2.03;;;10.70;99.90;;;;;;5008556;28;20056;-71
2023/11/06 11:41:21;;;;;;;4.22;2.88;;;10.70;99.90;;;;;;5014333;28;20112;-70
2023/11/06 11:43:48;;;;;;;4.38;2.00;;;10.90;99.90;;;;;;5011042;28;20032;-71
2023/11/06 11:46:39;;;;;;;3.45;2.08;;;11.20;99.90;;;;;;5018439;28;20463;-70
2023/11/06 11:49:05;;;;;;;6.20;2.10;;;11.20;99.90;;;;;;5012804;28;20034;-71
2023/11/06 11:51:50;;;;;;;3.63;1.63;;;11.30;99.90;;;;;;5008931;28;20034;-72
2023/11/06 11:54:32;;;;;;;3.67;1.60;;;11.30;99.90;;;;;;5010541;28;20049;-72
2023/11/06 11:57:01;;;;;;;3.25;1.63;;;11.20;99.90;;;;;;5011708;28;20108;-72
2023/11/06 11:59:26;;;;;;;2.50;1.60;;;11.40;99.90;;;;;;5005299;28;20506;-72
2023/11/06 12:01:53;;;;;;;3.47;1.58;;;11.40;99.90;;;;;;5006938;28;20065;-73
2023/11/06 12:04:20;;;;;;;3.95;1.75;;;11.40;99.90;;;;;;5009094;28;20117;-72
2023/11/06 12:06:47;;;;;;;5.55;2.00;;;11.50;99.90;;;;;;5006137;28;20076;-72
2023/11/06 12:09:13;;;;;;;2.75;1.40;;;11.40;99.90;;;;;;5010439;28;20025;-72
2023/11/06 12:11:39;;;;;;;4.43;1.73;;;11.40;99.90;;;;;;5015953;28;20021;-72
2023/11/06 12:14:04;;;;;;;3.95;1.80;;;11.50;99.90;;;;;;5009737;28;20040;-72
2023/11/06 12:16:30;;;;;;;2.53;1.30;;;11.70;99.90;;;;;;5007510;28;20038;-72
2023/11/06 12:18:56;;;;;;;3.03;1.33;;;11.90;99.90;;;;;;5007226;28;20109;-73
2023/11/06 12:21:22;;;;;;;2.40;1.08;;;11.90;99.90;;;;;;5007365;28;20076;-72
2023/11/06 12:23:48;;;;;;;2.85;1.60;;;11.90;99.90;;;;;;5017573;28;20555;-72
2023/11/06 12:26:17;;;;;;;2.50;1.10;;;12.00;99.90;;;;;;5017759;28;20348;-72
2023/11/06 12:28:52;;;;;;;2.25;1.10;;;12.10;99.90;;;;;;5015454;28;20072;-72
2023/11/06 12:31:19;;;;;;;3.38;1.40;;;12.00;99.90;;;;;;5023882;28;20025;-72
2023/11/06 12:33:45;;;;;;;2.22;1.10;;;12.10;99.90;;;;;;5017883;28;20129;-72
2023/11/06 12:36:26;;;;;;;4.55;1.50;;;12.00;99.90;;;;;;5020403;28;20167;-72
2023/11/06 12:38:52;;;;;;;1.85;0.95;;;12.00;99.90;;;;;;5016710;28;20034;-72
2023/11/06 12:41:31;;;;;;;2.85;1.00;;;11.80;99.90;;;;;;5015931;28;20658;-73
2023/11/06 12:44:00;;;;;;;3.60;1.30;;;11.80;99.90;;;;;;5011502;28;20076;-73
2023/11/06 12:46:39;;;;;;;3.45;1.35;;;12.00;99.90;;;;;;5015714;28;20026;-72
2023/11/06 12:49:05;;;;;;;2.22;1.00;;;12.10;99.90;;;;;;5019622;28;20038;-73
2023/11/06 12:51:32;;;;;;;1.83;1.10;;;12.10;99.90;;;;;;5019345;28;20037;-72
2023/11/06 12:53:58;;;;;;;3.13;1.13;;;12.30;99.90;;;;;;5026301;28;20032;-72
2023/11/06 12:56:24;;;;;;;2.40;0.98;;;12.20;99.90;;;;;;5025590;28;20025;-72
2023/11/06 12:58:49;;;;;;;6.47;1.27;;;12.00;99.90;;;;;;5018056;28;20033;-73
2023/11/06 13:01:20;;;;;;;2.30;1.00;;;12.00;99.90;;;;;;5017177;28;20033;-72